• Join FlightAware (Why Join?)
  • Login
  • US Flag GB Flag 
19:40 EST


 

Airport Tracker/Info


-or-


 

Live Flight TrackerFlight Track Log ✈ N93XP ✈ 12-Jul-2013 ✈ CYWG - CYNL

Flight Track Log - Related Links

Times and Time Zones

All times are in EDT time to prevent confusion due to time zone crossing. See the N93XP flight status page for this flight to view local times or setup timezone preferences in your user account.

Time Position Orientation Groundspeed Altitude Reporting Facility
EDT Latitude Longitude Course Direction KTS MPH feet Rate Location/Type
08:18 49.8500 -97.2333 332° Northwest 220 253 2,800  Level Winnipeg Center
08:19 49.7833 -97.2000 162° South 240 276 4,400 1,200 Climbing Winnipeg Center
08:20 49.7167 -97.2167 189° South 220 253 5,200 1,020 Climbing Winnipeg Center
08:21 49.7500 -97.2833 308° West 260 299 6,500 1,200 Climbing Winnipeg Center
08:22 49.8333 -97.3000 353° North 300 345 7,600 960 Climbing Winnipeg Center
08:23 50.4198 -97.6860 332° Northwest  Level FlightAware Approximate
08:23 49.9167 -97.3333 346° North 300 345 8,500  Level Winnipeg Center
08:24 49.9833 -97.4000 327° Northwest 310 357 9,400 900 Climbing Winnipeg Center
08:25 50.0667 -97.4833 327° Northwest 310 357 10,300 900 Climbing Winnipeg Center
08:26 50.1333 -97.5667 321° Northwest 320 368 11,200 900 Climbing Winnipeg Center
08:27 50.2167 -97.6167 339° North 330 380 12,100 840 Climbing Winnipeg Center
08:28 50.3000 -97.7000 327° Northwest 340 391 12,900 900 Climbing Winnipeg Center
08:29 50.3833 -97.7833 327° Northwest 350 403 13,900 840 Climbing Winnipeg Center
08:30 50.4667 -97.8333 339° North 350 403 14,600 660 Climbing Winnipeg Center
08:31 50.5667 -97.9167 332° Northwest 360 414 15,300 660 Climbing Winnipeg Center
08:32 50.6667 -97.9167 360° North 380 437 16,000 600 Climbing Winnipeg Center
08:33 50.7667 -97.9500 348° North 390 449 16,600 600 Climbing Winnipeg Center
08:34 50.8833 -97.9667 355° North 390 449 17,300 780 Climbing Winnipeg Center
08:35 50.9833 -98.0333 337° Northwest 380 437 18,200 780 Climbing Winnipeg Center
08:36 51.0833 -98.1167 332° Northwest 380 437 18,900 600 Climbing Winnipeg Center
08:37 51.1833 -98.1333 354° North 370 426 19,500 540 Climbing Winnipeg Center
08:38 51.2833 -98.2000 337° Northwest 370 426 20,000 480 Climbing Winnipeg Center
08:39 51.3833 -98.2500 343° North 380 437 20,500 420 Climbing Winnipeg Center
08:40 51.4833 -98.3167 337° Northwest 380 437 20,900 420 Climbing Winnipeg Center
08:41 51.5833 -98.3667 343° North 380 437 21,400 480 Climbing Winnipeg Center
08:42 51.6833 -98.4167 343° North 380 437 21,900 420 Climbing Winnipeg Center
08:43 51.7833 -98.4833 338° Northwest 380 437 22,300 420 Climbing Winnipeg Center
08:44 51.8833 -98.5333 343° North 390 449 22,800 420 Climbing Winnipeg Center
08:45 51.9833 -98.6000 338° Northwest 390 449 23,200 420 Climbing Winnipeg Center
08:46 52.0833 -98.6833 333° Northwest 390 449 23,700 480 Climbing Winnipeg Center
08:47 52.1500 -98.7667 323° Northwest 370 426 24,200 480 Climbing Winnipeg Center
08:48 52.2500 -98.8833 324° Northwest 380 437 24,700 480 Climbing Winnipeg Center
08:49 52.3167 -98.9833 317° Northwest 380 437 25,200 480 Climbing Winnipeg Center
08:50 52.4167 -99.0833 329° Northwest 380 437 25,700 420 Climbing Winnipeg Center
08:51 52.5167 -99.1667 333° Northwest 400 460 26,100 420 Climbing Winnipeg Center
08:52 52.6167 -99.2500 333° Northwest 400 460 26,600 480 Climbing Winnipeg Center
08:53 52.7167 -99.3167 338° Northwest 400 460 27,100 480 Climbing Winnipeg Center
08:54 52.8333 -99.4000 337° Northwest 390 449 27,600 420 Climbing Winnipeg Center
08:55 52.9167 -99.4667 334° Northwest 400 460 28,000 180 Climbing Winnipeg Center
08:56 53.0333 -99.5500 337° Northwest 400 460 28,000  Level Winnipeg Center
08:57 53.1333 -99.6500 329° Northwest 420 483 28,000  Level Winnipeg Center
08:58 53.2500 -99.7000 346° North 410 472 28,000  Level Winnipeg Center
08:59 53.3500 -99.8000 329° Northwest 410 472 28,000  Level Winnipeg Center
09:00 53.4667 -99.8667 341° North 440 506 28,000  Level Winnipeg Center
09:01 53.5667 -99.9500 334° Northwest 420 483 28,000  Level Winnipeg Center
09:02 53.6667 -100.0500 329° Northwest 440 506 28,000  Level Winnipeg Center
09:03 53.7833 -100.1333 337° Northwest 450 518 28,000  Level Winnipeg Center
09:04 53.9000 -100.2000 341° North 450 518 28,000  Level Winnipeg Center
09:05 54.0167 -100.3000 333° Northwest 460 529 28,000  Level Winnipeg Center
09:06 54.1333 -100.4000 333° Northwest 450 518 28,000  Level Winnipeg Center
09:07 54.2500 -100.4833 337° Northwest 450 518 28,000  Level Winnipeg Center
09:08 54.3667 -100.5833 333° Northwest 450 518 28,000  Level Winnipeg Center
09:09 54.4833 -100.6833 334° Northwest 450 518 28,000  Level Winnipeg Center
09:10 54.5833 -100.7833 330° Northwest 450 518 28,000  Level Winnipeg Center
09:11 54.7000 -100.8500 342° North 440 506 28,000  Level Winnipeg Center
09:12 54.8000 -100.9500 330° Northwest 440 506 28,000  Level Winnipeg Center
09:13 54.9167 -101.0333 338° Northwest 440 506 28,000  Level Winnipeg Center
09:14 55.0333 -101.1167 338° Northwest 430 495 28,000  Level Winnipeg Center
09:15 55.1500 -101.2167 334° Northwest 430 495 28,000  Level Winnipeg Center
09:16 55.2500 -101.3167 330° Northwest 440 506 28,000  Level Winnipeg Center
09:17 55.3500 -101.4167 330° Northwest 430 495 28,000  Level Winnipeg Center
09:18 55.4667 -101.4833 342° North 440 506 28,000  Level Winnipeg Center
09:19 55.5833 -101.5833 334° Northwest 430 495 28,000  Level Winnipeg Center
09:20 55.6833 -101.6833 331° Northwest 420 483 28,000  Level Winnipeg Center
09:21 55.7833 -101.7500 339° North 420 483 28,000  Level Winnipeg Center
09:22 55.9000 -101.8500 334° Northwest 410 472 28,000  Level Winnipeg Center
09:23 55.9833 -101.9667 322° Northwest 420 483 28,000  Level Winnipeg Center
09:24 56.1000 -102.0333 342° North 410 472 28,000  Level Winnipeg Center
09:25 56.2000 -102.1333 331° Northwest 410 472 28,000  Level Winnipeg Center
09:26 56.3167 -102.2500 331° Northwest 420 483 28,000  Level Winnipeg Center
09:27 56.4167 -102.3167 340° North 420 483 28,000  Level Winnipeg Center
09:28 56.5000 -102.4167 326° Northwest 420 483 28,000  Level Winnipeg Center
09:29 56.6167 -102.5333 331° Northwest 420 483 28,000  Level Winnipeg Center
09:30 56.7333 -102.6000 343° North 420 483 28,000  Level Winnipeg Center
09:31 56.8333 -102.7167 327° Northwest 420 483 28,000  Level Winnipeg Center
09:32 56.9333 -102.7833 340° North 410 472 28,000  Level Winnipeg Center
09:33 57.0167 -102.9000 323° Northwest 410 472 28,000 -240 Level Winnipeg Center
09:34 57.1333 -103.0000 335° Northwest 400 460 27,600 -960 Descending Winnipeg Center
09:35 57.2333 -103.0833 336° Northwest 420 483 26,100 -2,100 Descending Winnipeg Center
09:36 57.3500 -103.2000 332° Northwest 430 495 23,500 -2,760 Descending Winnipeg Center
09:37 57.4333 -103.3000 327° Northwest 400 460 20,600 -3,060 Descending Winnipeg Center
09:38 57.5333 -103.3833 336° Northwest 380 437 17,400 -3,000 Descending Winnipeg Center
09:39 57.6167 -103.4667 332° Northwest 360 414 14,700 -2,700 Descending Winnipeg Center
09:40 57.7000 -103.5333 337° Northwest 340 391 12,000 -2,520 Descending Winnipeg Center
09:41 57.7833 -103.6167 332° Northwest 320 368 9,700 -1,740 Descending Winnipeg Center
09:42 57.8333 -103.6833 325° Northwest 290 334 8,600 -1,080 Descending Winnipeg Center
09:43 57.9167 -103.7667 332° Northwest 270 311 7,600 -960 Descending Winnipeg Center
09:44 57.9833 -103.7833 352° North 280 322 6,700 -900 Descending Winnipeg Center
09:45 58.0667 -103.8167 348° North 270 311 5,800 -900 Descending Winnipeg Center
09:47 58.2232 -104.0231 332° Northwest  Level FlightAware Approximate
09:54 58.2667 -104.0667 332° Northwest  Level FlightAware Approximate
09:55 58.2833 -104.0833 332° Northwest  Level Estimated
09:56 58.2833 -104.0833 332° Northwest  Level Estimated
09:57 58.2833 -104.0833 332° Northwest  Level Estimated
09:58 58.2833 -104.0833 332° Northwest  Level Estimated
09:59 58.2833 -104.0833 332° Northwest  Level Estimated
10:00 58.2833 -104.0833 332° Northwest  Level Estimated
10:01 58.2833 -104.0833 332° Northwest  Level Estimated
10:02 58.2833 -104.0833 332° Northwest  Level Estimated
10:03 58.2833 -104.0833 332° Northwest  Level Estimated
10:04 58.2833 -104.0833 332° Northwest  Level Estimated
10:05 58.2833 -104.0833 332° Northwest  Level Estimated
10:06 58.2833 -104.0833 332° Northwest  Level Estimated
10:07 58.2833 -104.0833 332° Northwest  Level Estimated
10:08 58.2833 -104.0833 332° Northwest  Level Estimated
10:09 58.2833 -104.0833 332° Northwest  Level Estimated